Time;durP1;ratioP1;P1;durP2;ratioP2;P2;SDS_P1;SDS_P2;PMS_P1;PMS_P2;Temp;Humidity;BMP_temperature;BMP_pressure;BME280_temperature;BME280_humidity;BME280_pressure;Samples;Min_cycle;Max_cycle;Signal;HPM_P1;HPM_P2
2023/08/30 00:00:10;;;;;;;14.97;8.70;;;;;;;;;;5012245;28;20022;-68
2023/08/30 00:02:36;;;;;;;14.27;8.80;;;;;;;;;;5011979;28;20466;-68
2023/08/30 00:05:02;;;;;;;12.50;8.47;;;;;;;;;;5026181;28;20160;-68
2023/08/30 00:07:27;;;;;;;14.20;8.57;;;;;;;;;;5031501;28;20112;-68
2023/08/30 00:09:53;;;;;;;12.57;8.63;;;;;;;;;;5031505;28;20457;-68
2023/08/30 00:12:18;;;;;;;11.30;8.20;;;;;;;;;;5031342;28;20373;-68
2023/08/30 00:14:43;;;;;;;11.40;8.17;;;;;;;;;;5031659;28;20385;-68
2023/08/30 00:17:09;;;;;;;13.43;8.07;;;;;;;;;;5031365;28;20431;-68
2023/08/30 00:19:34;;;;;;;10.33;7.53;;;;;;;;;;5031348;28;20013;-68
2023/08/30 00:21:59;;;;;;;12.13;7.33;;;;;;;;;;5031365;28;20441;-68
2023/08/30 00:24:25;;;;;;;10.63;6.73;;;;;;;;;;5031001;28;20112;-69
2023/08/30 00:26:50;;;;;;;11.67;6.90;;;;;;;;;;5031510;28;20060;-68
2023/08/30 00:29:15;;;;;;;11.83;7.17;;;;;;;;;;5031226;28;20029;-68
2023/08/30 00:31:40;;;;;;;10.83;6.10;;;;;;;;;;5031168;28;20053;-68
2023/08/30 00:34:05;;;;;;;12.23;5.70;;;;;;;;;;5031565;28;20022;-68
2023/08/30 00:36:31;;;;;;;8.80;6.00;;;;;;;;;;5032961;28;20135;-69
2023/08/30 00:38:56;;;;;;;10.07;6.20;;;;;;;;;;5034571;28;20044;-68
2023/08/30 00:41:21;;;;;;;8.90;6.30;;;;;;;;;;5034853;28;20417;-68
2023/08/30 00:43:46;;;;;;;10.00;5.93;;;;;;;;;;5035152;28;20368;-69
2023/08/30 00:46:12;;;;;;;10.43;6.83;;;;;;;;;;5032358;28;20483;-68
2023/08/30 00:48:38;;;;;;;12.73;8.73;;;;;;;;;;5032223;28;20022;-68
2023/08/30 00:51:03;;;;;;;16.13;10.60;;;;;;;;;;5034672;28;20032;-67
2023/08/30 00:53:28;;;;;;;15.40;9.93;;;;;;;;;;5034423;28;20381;-68
2023/08/30 00:55:54;;;;;;;16.07;10.17;;;;;;;;;;5034571;28;20021;-68
2023/08/30 00:58:19;;;;;;;14.27;9.33;;;;;;;;;;5034850;28;20025;-68
2023/08/30 01:03:47;;;;;;;13.87;10.10;;;;;;;;;;5029131;28;20095;-63
2023/08/30 01:06:13;;;;;;;15.63;10.90;;;;;;;;;;5034138;28;20029;-69
2023/08/30 01:08:38;;;;;;;14.43;10.37;;;;;;;;;;5034945;28;20080;-68
2023/08/30 01:11:19;;;;;;;14.77;10.03;;;;;;;;;;5035355;28;20022;-68
2023/08/30 01:13:47;;;;;;;14.77;9.43;;;;;;;;;;5035132;28;20377;-68
2023/08/30 01:16:12;;;;;;;16.43;9.37;;;;;;;;;;5035491;28;20026;-68
2023/08/30 01:18:38;;;;;;;11.87;8.83;;;;;;;;;;5034842;28;20036;-67
2023/08/30 01:21:05;;;;;;;11.80;8.57;;;;;;;;;;5035376;28;20469;-67
2023/08/30 01:23:33;;;;;;;13.77;9.13;;;;;;;;;;5032142;28;20524;-68
2023/08/30 01:26:17;;;;;;;14.00;8.97;;;;;;;;;;5033738;28;20053;-68
2023/08/30 01:28:43;;;;;;;12.43;8.33;;;;;;;;;;5035006;28;20026;-67
2023/08/30 01:31:09;;;;;;;13.57;8.87;;;;;;;;;;5035587;28;20024;-68
2023/08/30 01:33:36;;;;;;;14.40;8.93;;;;;;;;;;5035486;28;20552;-67
2023/08/30 01:36:03;;;;;;;12.07;9.07;;;;;;;;;;5035403;28;20488;-68
2023/08/30 01:38:29;;;;;;;13.60;9.00;;;;;;;;;;5035101;28;20018;-67
2023/08/30 01:40:56;;;;;;;14.00;9.60;;;;;;;;;;5035322;28;20051;-67
2023/08/30 01:43:21;;;;;;;16.43;10.67;;;;;;;;;;5035510;28;20017;-68
2023/08/30 01:45:47;;;;;;;15.57;10.70;;;;;;;;;;5034930;28;20100;-67
2023/08/30 01:48:14;;;;;;;20.40;11.37;;;;;;;;;;5034181;28;20381;-67
2023/08/30 01:50:40;;;;;;;16.27;11.27;;;;;;;;;;5035321;28;20020;-67
2023/08/30 01:53:07;;;;;;;20.50;11.30;;;;;;;;;;5035327;28;20393;-67
2023/08/30 01:55:32;;;;;;;18.40;12.37;;;;;;;;;;5034710;28;20013;-67
2023/08/30 01:57:58;;;;;;;19.80;12.10;;;;;;;;;;5033932;28;20362;-67
2023/08/30 02:00:23;;;;;;;18.60;13.13;;;;;;;;;;5030883;28;20088;-67
2023/08/30 02:02:48;;;;;;;17.63;12.33;;;;;;;;;;5032268;28;20060;-68
2023/08/30 02:05:14;;;;;;;18.83;13.20;;;;;;;;;;5035135;28;20052;-67
2023/08/30 02:07:54;;;;;;;18.77;13.17;;;;;;;;;;5054542;28;20009;-67
2023/08/30 02:10:25;;;;;;;18.75;12.93;;;;;;;;;;5058337;28;20017;-66
2023/08/30 02:12:53;;;;;;;21.57;13.73;;;;;;;;;;5058257;28;20049;-67
2023/08/30 02:15:18;;;;;;;22.27;14.93;;;;;;;;;;5046622;28;20025;-61
2023/08/30 02:17:44;;;;;;;22.77;14.97;;;;;;;;;;5033517;28;20013;-61
2023/08/30 02:20:10;;;;;;;25.10;15.77;;;;;;;;;;5033559;28;20010;-61
2023/08/30 02:22:35;;;;;;;23.27;15.47;;;;;;;;;;5032830;28;20565;-61
2023/08/30 02:25:04;;;;;;;25.77;16.03;;;;;;;;;;5032221;28;20048;-62
2023/08/30 02:27:30;;;;;;;22.03;15.87;;;;;;;;;;5028043;28;20417;-61
2023/08/30 02:29:55;;;;;;;23.27;15.50;;;;;;;;;;5033006;28;20021;-63
2023/08/30 02:32:21;;;;;;;24.90;15.13;;;;;;;;;;5032626;28;20036;-61
2023/08/30 02:34:49;;;;;;;22.60;15.63;;;;;;;;;;5033122;28;20028;-61
2023/08/30 02:37:15;;;;;;;20.23;14.13;;;;;;;;;;5033177;28;20481;-62
2023/08/30 02:39:40;;;;;;;19.57;13.87;;;;;;;;;;5032606;28;20100;-62
2023/08/30 02:42:05;;;;;;;21.80;14.17;;;;;;;;;;5033008;28;20037;-61
2023/08/30 02:44:30;;;;;;;19.00;13.53;;;;;;;;;;5032580;28;20017;-61
2023/08/30 02:46:55;;;;;;;21.83;13.80;;;;;;;;;;5032705;28;20075;-61
2023/08/30 02:49:21;;;;;;;19.97;14.50;;;;;;;;;;5032603;28;20021;-61
2023/08/30 02:51:46;;;;;;;20.10;13.70;;;;;;;;;;5031591;28;20432;-62
2023/08/30 02:54:13;;;;;;;20.10;14.13;;;;;;;;;;5032839;28;20022;-61
2023/08/30 02:56:38;;;;;;;19.27;14.20;;;;;;;;;;5031569;28;20071;-62
2023/08/30 02:59:03;;;;;;;21.67;14.73;;;;;;;;;;5031580;28;20025;-62
2023/08/30 03:01:28;;;;;;;22.77;15.53;;;;;;;;;;5032312;28;20029;-61
2023/08/30 03:03:54;;;;;;;23.37;15.17;;;;;;;;;;5032224;28;20064;-61
2023/08/30 03:06:19;;;;;;;22.83;15.70;;;;;;;;;;5032498;28;20021;-61
2023/08/30 03:08:44;;;;;;;24.07;16.40;;;;;;;;;;5032267;28;20013;-62
2023/08/30 03:11:13;;;;;;;23.67;16.37;;;;;;;;;;5032450;28;20026;-62
2023/08/30 03:13:38;;;;;;;24.93;17.13;;;;;;;;;;5032439;28;20040;-61
2023/08/30 03:16:14;;;;;;;25.53;16.33;;;;;;;;;;5032165;28;20021;-61
2023/08/30 03:18:39;;;;;;;27.23;16.40;;;;;;;;;;5032504;28;20457;-61
2023/08/30 03:21:04;;;;;;;23.60;16.07;;;;;;;;;;5032298;28;20063;-61
2023/08/30 03:23:31;;;;;;;26.57;17.23;;;;;;;;;;5032106;28;20071;-62
2023/08/30 03:25:56;;;;;;;26.87;18.43;;;;;;;;;;5031202;28;20121;-61
2023/08/30 03:28:21;;;;;;;30.83;18.40;;;;;;;;;;5032554;28;20049;-61
2023/08/30 03:30:47;;;;;;;34.07;20.40;;;;;;;;;;5032133;28;20384;-61
2023/08/30 03:33:13;;;;;;;33.73;20.50;;;;;;;;;;5032462;28;20420;-62
2023/08/30 03:35:38;;;;;;;34.17;20.60;;;;;;;;;;5032281;28;20017;-62
2023/08/30 03:38:03;;;;;;;32.57;20.33;;;;;;;;;;5032254;28;20484;-61
2023/08/30 03:40:29;;;;;;;35.33;20.90;;;;;;;;;;5014051;28;20021;-61
2023/08/30 03:42:54;;;;;;;36.43;21.87;;;;;;;;;;5031803;28;20021;-61
2023/08/30 03:45:20;;;;;;;38.97;21.53;;;;;;;;;;5031806;28;20025;-61
2023/08/30 03:47:45;;;;;;;35.53;21.27;;;;;;;;;;5031475;28;20029;-61
2023/08/30 03:50:10;;;;;;;32.20;20.10;;;;;;;;;;5031444;28;20380;-62
2023/08/30 03:52:35;;;;;;;30.67;19.57;;;;;;;;;;5032094;28;20026;-61
2023/08/30 03:55:01;;;;;;;34.30;20.07;;;;;;;;;;5031615;28;20100;-61
2023/08/30 03:57:26;;;;;;;36.70;21.17;;;;;;;;;;5030987;28;20032;-61
2023/08/30 03:59:51;;;;;;;41.73;22.80;;;;;;;;;;5031998;28;20017;-61
2023/08/30 04:02:17;;;;;;;38.57;22.13;;;;;;;;;;5031937;28;20405;-61
2023/08/30 04:04:42;;;;;;;39.97;22.57;;;;;;;;;;5031278;28;20453;-61
2023/08/30 04:07:07;;;;;;;38.43;22.53;;;;;;;;;;5031717;28;20052;-61
2023/08/30 04:09:32;;;;;;;37.47;21.33;;;;;;;;;;5032105;28;20021;-61
2023/08/30 04:11:59;;;;;;;34.97;21.07;;;;;;;;;;5035819;28;20381;-61
2023/08/30 04:14:24;;;;;;;33.53;19.93;;;;;;;;;;5035242;28;20028;-61
2023/08/30 04:16:49;;;;;;;34.23;19.53;;;;;;;;;;5035629;28;20026;-62
2023/08/30 04:19:14;;;;;;;32.70;19.50;;;;;;;;;;5035833;28;20025;-62
2023/08/30 04:21:40;;;;;;;43.37;22.43;;;;;;;;;;5035279;28;20021;-62
2023/08/30 04:24:05;;;;;;;42.77;23.63;;;;;;;;;;5035656;28;20034;-62
2023/08/30 04:26:31;;;;;;;52.03;25.27;;;;;;;;;;5035059;28;20421;-61
2023/08/30 04:28:56;;;;;;;50.27;25.77;;;;;;;;;;5035442;28;20060;-61
2023/08/30 04:31:21;;;;;;;58.33;28.20;;;;;;;;;;5034093;28;20489;-62
2023/08/30 04:33:46;;;;;;;68.40;29.87;;;;;;;;;;5034643;28;20030;-62
2023/08/30 04:36:12;;;;;;;62.67;29.30;;;;;;;;;;5016824;28;20426;-62
2023/08/30 04:38:37;;;;;;;64.97;30.27;;;;;;;;;;5034665;28;20555;-62
2023/08/30 04:41:02;;;;;;;66.57;30.20;;;;;;;;;;5033232;28;20049;-62
2023/08/30 04:43:27;;;;;;;75.73;31.87;;;;;;;;;;5034512;28;20018;-63
2023/08/30 04:45:53;;;;;;;73.70;31.70;;;;;;;;;;5034505;28;20021;-63
2023/08/30 04:48:19;;;;;;;70.83;32.17;;;;;;;;;;5033298;28;20084;-62
2023/08/30 04:50:44;;;;;;;71.40;30.63;;;;;;;;;;5033925;28;20039;-62
2023/08/30 04:53:09;;;;;;;66.03;29.63;;;;;;;;;;5032796;28;20068;-62
2023/08/30 04:55:35;;;;;;;65.03;28.67;;;;;;;;;;5034433;28;20100;-62
2023/08/30 04:58:00;;;;;;;73.40;30.40;;;;;;;;;;5033455;28;20055;-64
2023/08/30 05:00:25;;;;;;;71.57;30.73;;;;;;;;;;5034124;28;20064;-62
2023/08/30 05:02:50;;;;;;;77.43;32.80;;;;;;;;;;5030527;28;20184;-63
2023/08/30 05:05:16;;;;;;;75.50;32.67;;;;;;;;;;5032911;28;20045;-62
2023/08/30 05:07:41;;;;;;;84.07;34.03;;;;;;;;;;5033811;28;20100;-62
2023/08/30 05:10:06;;;;;;;78.57;34.57;;;;;;;;;;5033824;28;20021;-62
2023/08/30 05:12:35;;;;;;;76.47;33.37;;;;;;;;;;5032585;28;20099;-61
2023/08/30 05:15:00;;;;;;;71.43;32.87;;;;;;;;;;5030713;28;20156;-63
2023/08/30 05:17:28;;;;;;;84.20;34.50;;;;;;;;;;5034181;28;20417;-62
2023/08/30 05:19:53;;;;;;;70.93;31.80;;;;;;;;;;5034210;28;20109;-62
2023/08/30 05:22:18;;;;;;;73.00;31.80;;;;;;;;;;5033456;28;20104;-62
2023/08/30 05:24:43;;;;;;;67.53;31.07;;;;;;;;;;5032831;28;20029;-62
2023/08/30 05:27:08;;;;;;;61.57;30.07;;;;;;;;;;5029243;28;20079;-61
2023/08/30 05:29:34;;;;;;;58.13;28.73;;;;;;;;;;5034221;28;20140;-61
2023/08/30 05:31:59;;;;;;;57.37;27.90;;;;;;;;;;5034050;28;20061;-61
2023/08/30 05:34:26;;;;;;;56.70;29.23;;;;;;;;;;5034237;28;20093;-61
2023/08/30 05:36:52;;;;;;;48.73;26.10;;;;;;;;;;5034038;28;20580;-62
2023/08/30 05:39:17;;;;;;;43.70;24.47;;;;;;;;;;5033739;28;20096;-61
2023/08/30 05:41:42;;;;;;;49.10;25.57;;;;;;;;;;5033684;28;20036;-61
2023/08/30 05:44:08;;;;;;;42.57;24.20;;;;;;;;;;5033953;28;20408;-61
2023/08/30 05:46:33;;;;;;;41.43;24.77;;;;;;;;;;5034065;28;20591;-66
2023/08/30 05:49:00;;;;;;;36.93;22.80;;;;;;;;;;5033901;28;20075;-66
2023/08/30 05:51:25;;;;;;;31.03;20.67;;;;;;;;;;5033779;28;20267;-66
2023/08/30 05:53:51;;;;;;;30.43;19.17;;;;;;;;;;5033802;28;20591;-66
2023/08/30 05:56:17;;;;;;;28.73;17.30;;;;;;;;;;5034029;28;20032;-66
2023/08/30 05:58:42;;;;;;;23.17;16.13;;;;;;;;;;5032711;28;20025;-65
2023/08/30 06:01:07;;;;;;;20.30;14.27;;;;;;;;;;5033559;28;20029;-66
2023/08/30 06:03:32;;;;;;;20.00;14.32;;;;;;;;;;5033003;28;21337;-66
2023/08/30 06:05:58;;;;;;;19.35;13.68;;;;;;;;;;5033435;28;20021;-66
2023/08/30 06:08:23;;;;;;;17.40;12.93;;;;;;;;;;5033509;28;20035;-65
2023/08/30 06:10:48;;;;;;;18.00;13.30;;;;;;;;;;5032943;28;20034;-66
2023/08/30 06:13:13;;;;;;;19.00;12.95;;;;;;;;;;5033112;28;20028;-65
2023/08/30 06:15:39;;;;;;;21.30;13.35;;;;;;;;;;5033481;28;20071;-65
2023/08/30 06:18:04;;;;;;;17.92;12.35;;;;;;;;;;5033381;28;20377;-65
2023/08/30 06:20:29;;;;;;;17.90;12.88;;;;;;;;;;5032695;28;20132;-65
2023/08/30 06:22:57;;;;;;;18.10;12.20;;;;;;;;;;5033275;28;20045;-65
2023/08/30 06:25:23;;;;;;;16.75;11.98;;;;;;;;;;5033080;28;20505;-65
2023/08/30 06:27:57;;;;;;;18.48;11.93;;;;;;;;;;5032876;28;20075;-65
2023/08/30 06:30:22;;;;;;;15.75;11.70;;;;;;;;;;5033080;28;20473;-65
2023/08/30 06:32:48;;;;;;;16.25;11.40;;;;;;;;;;5032625;28;20032;-66
2023/08/30 06:35:13;;;;;;;18.13;11.77;;;;;;;;;;5031903;28;20433;-65
2023/08/30 06:37:38;;;;;;;14.98;10.95;;;;;;;;;;5032431;28;20067;-65
2023/08/30 06:40:04;;;;;;;15.32;10.93;;;;;;;;;;5032977;28;20041;-64
2023/08/30 06:42:29;;;;;;;14.15;10.88;;;;;;;;;;5032752;28;20037;-65
2023/08/30 06:44:54;;;;;;;15.18;10.85;;;;;;;;;;5032820;28;20534;-64
2023/08/30 06:47:20;;;;;;;16.30;10.57;;;;;;;;;;5031605;28;20432;-64
2023/08/30 06:49:46;;;;;;;15.13;9.82;;;;;;;;;;5032565;28;20049;-65
2023/08/30 06:52:11;;;;;;;14.70;9.65;;;;;;;;;;5032678;28;20119;-65
2023/08/30 06:54:36;;;;;;;16.20;10.43;;;;;;;;;;5032740;28;20025;-65
2023/08/30 06:57:02;;;;;;;14.95;10.25;;;;;;;;;;5031610;28;20017;-59
2023/08/30 06:59:27;;;;;;;14.05;10.32;;;;;;;;;;5032444;28;20028;-59
2023/08/30 07:01:53;;;;;;;14.63;10.52;;;;;;;;;;5032336;28;20440;-59
2023/08/30 07:04:18;;;;;;;14.45;10.13;;;;;;;;;;5032143;28;20079;-59
2023/08/30 07:06:43;;;;;;;15.05;10.15;;;;;;;;;;5032229;28;20033;-59
2023/08/30 07:09:09;;;;;;;15.52;10.52;;;;;;;;;;5032225;28;20080;-59
2023/08/30 07:11:34;;;;;;;13.98;9.60;;;;;;;;;;5032162;28;20032;-61
2023/08/30 07:13:59;;;;;;;15.98;9.75;;;;;;;;;;5032004;28;20219;-59
2023/08/30 07:16:24;;;;;;;14.52;9.68;;;;;;;;;;5032179;28;20018;-60
2023/08/30 07:18:50;;;;;;;13.85;9.20;;;;;;;;;;5031960;28;20021;-59
2023/08/30 07:21:15;;;;;;;14.32;9.55;;;;;;;;;;5031901;28;20021;-60
2023/08/30 07:23:40;;;;;;;13.82;9.20;;;;;;;;;;5032263;28;20075;-60
2023/08/30 07:26:05;;;;;;;12.27;9.07;;;;;;;;;;5032075;28;20032;-60
2023/08/30 07:28:31;;;;;;;14.23;9.25;;;;;;;;;;5031987;28;20359;-60
2023/08/30 07:31:05;;;;;;;14.93;9.25;;;;;;;;;;5031682;28;20385;-60
2023/08/30 07:33:31;;;;;;;16.17;9.48;;;;;;;;;;5031923;28;20351;-59
2023/08/30 07:35:56;;;;;;;13.32;9.68;;;;;;;;;;5031656;28;20020;-60
2023/08/30 07:38:21;;;;;;;11.02;8.40;;;;;;;;;;5032198;28;20079;-60
2023/08/30 07:40:47;;;;;;;16.17;9.00;;;;;;;;;;5031964;28;20017;-60
2023/08/30 07:43:12;;;;;;;12.25;8.70;;;;;;;;;;5031862;28;20024;-61
2023/08/30 07:45:37;;;;;;;12.73;8.85;;;;;;;;;;5031641;28;20036;-61
2023/08/30 07:48:03;;;;;;;12.10;9.57;;;;;;;;;;5031467;28;20076;-61
2023/08/30 07:50:28;;;;;;;14.50;9.70;;;;;;;;;;5031553;28;20017;-60
2023/08/30 07:52:53;;;;;;;14.25;9.38;;;;;;;;;;5031805;28;20067;-61
2023/08/30 07:55:18;;;;;;;12.52;9.00;;;;;;;;;;5030784;28;20032;-61
2023/08/30 07:57:44;;;;;;;14.23;9.60;;;;;;;;;;5031652;28;20036;-62
2023/08/30 08:00:09;;;;;;;14.20;9.98;;;;;;;;;;5031125;28;20428;-61
2023/08/30 08:02:34;;;;;;;13.23;9.40;;;;;;;;;;5031905;28;20033;-62
2023/08/30 08:05:00;;;;;;;13.18;9.18;;;;;;;;;;5030963;28;20476;-61
2023/08/30 08:07:25;;;;;;;13.20;9.75;;;;;;;;;;5031863;28;20449;-61
2023/08/30 08:09:50;;;;;;;12.90;9.07;;;;;;;;;;5031886;28;20022;-60
2023/08/30 08:12:15;;;;;;;15.80;9.30;;;;;;;;;;5031723;28;20065;-62
2023/08/30 08:14:41;;;;;;;16.45;9.50;;;;;;;;;;5031748;28;20021;-61
2023/08/30 08:17:06;;;;;;;12.60;8.77;;;;;;;;;;5031607;28;20021;-60
2023/08/30 08:19:31;;;;;;;17.40;8.63;;;;;;;;;;5031646;28;20018;-60
2023/08/30 08:21:56;;;;;;;14.07;8.95;;;;;;;;;;5031320;28;20076;-60
2023/08/30 08:24:22;;;;;;;10.15;7.72;;;;;;;;;;5031485;28;20025;-60
2023/08/30 08:26:47;;;;;;;12.60;7.97;;;;;;;;;;5028531;28;20025;-60
2023/08/30 08:29:12;;;;;;;11.75;8.73;;;;;;;;;;5030883;28;20056;-61
2023/08/30 08:31:38;;;;;;;13.60;8.35;;;;;;;;;;5031212;28;20049;-59
2023/08/30 08:34:11;;;;;;;10.40;7.57;;;;;;;;;;5031348;28;20025;-60
2023/08/30 08:36:39;;;;;;;11.82;7.90;;;;;;;;;;5030929;28;20037;-61
2023/08/30 08:39:05;;;;;;;12.18;7.63;;;;;;;;;;5031566;28;20026;-60
2023/08/30 08:41:35;;;;;;;10.95;7.25;;;;;;;;;;5031137;28;20078;-60
2023/08/30 08:44:00;;;;;;;12.38;7.18;;;;;;;;;;5030960;28;20032;-59
2023/08/30 08:46:26;;;;;;;13.20;7.25;;;;;;;;;;5031121;28;20021;-59
2023/08/30 08:48:52;;;;;;;11.23;6.82;;;;;;;;;;5031199;28;20095;-59
2023/08/30 08:51:17;;;;;;;11.32;6.88;;;;;;;;;;5031403;28;20037;-60
2023/08/30 08:53:43;;;;;;;11.35;6.70;;;;;;;;;;5030718;28;20036;-59
2023/08/30 08:56:09;;;;;;;10.95;6.82;;;;;;;;;;5030550;28;20480;-60
2023/08/30 08:58:36;;;;;;;11.82;6.97;;;;;;;;;;5034220;28;20457;-62
2023/08/30 09:01:03;;;;;;;12.80;7.00;;;;;;;;;;5034935;28;20384;-60
2023/08/30 09:03:29;;;;;;;11.27;6.88;;;;;;;;;;5033998;28;20020;-61
2023/08/30 09:05:54;;;;;;;11.15;6.38;;;;;;;;;;5034482;28;20026;-60
2023/08/30 09:08:21;;;;;;;13.07;7.30;;;;;;;;;;5034667;28;20135;-60
2023/08/30 09:10:50;;;;;;;11.88;7.47;;;;;;;;;;5034603;28;20580;-61
2023/08/30 09:13:15;;;;;;;14.27;8.23;;;;;;;;;;5034648;28;20505;-60
2023/08/30 09:15:40;;;;;;;14.60;8.75;;;;;;;;;;5034473;28;20100;-62
2023/08/30 09:18:14;;;;;;;14.85;8.98;;;;;;;;;;5034696;28;20017;-62
2023/08/30 09:20:39;;;;;;;17.33;10.55;;;;;;;;;;5034195;28;20041;-62
2023/08/30 09:23:05;;;;;;;20.42;11.88;;;;;;;;;;5034032;28;20048;-62
2023/08/30 09:25:30;;;;;;;14.95;10.23;;;;;;;;;;5033970;28;20010;-62
2023/08/30 09:28:02;;;;;;;16.67;11.70;;;;;;;;;;5034423;28;20021;-61
2023/08/30 09:30:27;;;;;;;22.85;11.70;;;;;;;;;;5034106;28;20017;-63
2023/08/30 09:32:52;;;;;;;18.98;11.88;;;;;;;;;;5033707;28;20033;-62
2023/08/30 09:35:18;;;;;;;16.02;11.25;;;;;;;;;;5033769;28;20009;-62
2023/08/30 09:37:46;;;;;;;17.05;10.20;;;;;;;;;;5034031;28;20058;-62
2023/08/30 09:40:11;;;;;;;14.40;8.75;;;;;;;;;;5033705;28;20018;-62
2023/08/30 09:42:42;;;;;;;16.85;10.35;;;;;;;;;;5033873;28;20143;-62
2023/08/30 09:45:17;;;;;;;17.98;10.93;;;;;;;;;;5033898;28;20026;-63
2023/08/30 09:47:46;;;;;;;17.20;10.50;;;;;;;;;;5033751;28;20473;-63
2023/08/30 09:50:11;;;;;;;17.77;10.75;;;;;;;;;;5032635;28;20063;-64
2023/08/30 09:52:38;;;;;;;20.65;11.18;;;;;;;;;;5033801;28;20029;-63
2023/08/30 09:55:03;;;;;;;18.02;10.30;;;;;;;;;;5034070;28;20442;-62
2023/08/30 09:57:29;;;;;;;13.48;9.35;;;;;;;;;;5033233;28;20128;-62
2023/08/30 09:59:55;;;;;;;15.00;9.52;;;;;;;;;;5033482;28;20021;-64
2023/08/30 10:02:20;;;;;;;14.10;9.02;;;;;;;;;;5033255;28;20063;-63
2023/08/30 10:04:47;;;;;;;15.07;9.48;;;;;;;;;;5033201;28;20049;-63
2023/08/30 10:07:12;;;;;;;16.20;10.25;;;;;;;;;;5033557;28;20021;-63
2023/08/30 10:09:39;;;;;;;15.55;10.38;;;;;;;;;;5033406;28;20568;-62
2023/08/30 10:12:05;;;;;;;16.25;10.70;;;;;;;;;;5033182;28;20017;-63
2023/08/30 10:14:30;;;;;;;18.92;10.98;;;;;;;;;;5033496;28;20389;-64
2023/08/30 10:17:00;;;;;;;15.02;9.60;;;;;;;;;;5033034;28;20021;-64
2023/08/30 10:19:27;;;;;;;16.57;10.20;;;;;;;;;;5033186;28;20027;-63
2023/08/30 10:22:02;;;;;;;17.55;9.73;;;;;;;;;;5033049;28;20029;-62
2023/08/30 10:24:28;;;;;;;14.50;9.57;;;;;;;;;;5033375;28;20439;-62
2023/08/30 10:26:55;;;;;;;13.95;9.60;;;;;;;;;;5031774;28;20025;-68
2023/08/30 10:29:20;;;;;;;16.50;10.27;;;;;;;;;;5033175;28;20022;-68
2023/08/30 10:31:46;;;;;;;16.67;9.73;;;;;;;;;;5033117;28;20525;-69
2023/08/30 10:34:19;;;;;;;14.25;9.65;;;;;;;;;;5032887;28;20339;-68
2023/08/30 10:36:44;;;;;;;14.93;10.07;;;;;;;;;;5032729;28;20017;-69
2023/08/30 10:39:13;;;;;;;14.45;9.55;;;;;;;;;;5032826;28;20086;-68
2023/08/30 10:41:53;;;;;;;11.65;8.05;;;;;;;;;;5032732;28;20098;-68
2023/08/30 10:44:21;;;;;;;15.43;8.93;;;;;;;;;;5032945;28;20478;-68
2023/08/30 10:46:51;;;;;;;15.20;9.15;;;;;;;;;;5032013;28;20477;-69
2023/08/30 10:49:18;;;;;;;14.60;9.45;;;;;;;;;;5032413;28;20485;-69
2023/08/30 10:51:44;;;;;;;15.00;9.90;;;;;;;;;;5032276;28;20032;-69
2023/08/30 10:54:16;;;;;;;13.85;9.40;;;;;;;;;;5027945;28;20523;-69
2023/08/30 10:56:48;;;;;;;15.88;9.77;;;;;;;;;;5032316;28;20022;-69
2023/08/30 10:59:19;;;;;;;19.27;9.30;;;;;;;;;;5032330;28;20028;-69
2023/08/30 11:01:46;;;;;;;14.85;8.85;;;;;;;;;;5032102;28;20017;-69
2023/08/30 11:04:12;;;;;;;17.38;9.50;;;;;;;;;;5032280;28;20057;-68
2023/08/30 11:06:41;;;;;;;13.70;8.73;;;;;;;;;;5032416;28;20024;-70
2023/08/30 11:09:07;;;;;;;16.25;9.13;;;;;;;;;;5032485;28;20025;-70
2023/08/30 11:11:33;;;;;;;16.65;9.68;;;;;;;;;;5032053;28;20060;-69
2023/08/30 11:14:06;;;;;;;18.17;9.27;;;;;;;;;;5031798;28;20013;-70
2023/08/30 11:16:31;;;;;;;13.23;8.95;;;;;;;;;;5026406;28;20041;-69
2023/08/30 11:18:56;;;;;;;12.18;8.43;;;;;;;;;;5028191;28;20052;-70
2023/08/30 11:21:22;;;;;;;12.43;8.50;;;;;;;;;;5031905;28;20549;-67
2023/08/30 11:23:47;;;;;;;13.93;8.43;;;;;;;;;;5031888;28;20386;-68
2023/08/30 11:26:13;;;;;;;15.10;9.20;;;;;;;;;;5032125;28;20021;-68
2023/08/30 11:28:43;;;;;;;13.57;8.15;;;;;;;;;;5032273;28;20420;-69
2023/08/30 11:31:08;;;;;;;16.03;9.63;;;;;;;;;;5031832;28;20072;-69
2023/08/30 11:33:33;;;;;;;14.15;9.60;;;;;;;;;;5031858;28;20009;-69
2023/08/30 11:36:00;;;;;;;13.85;9.57;;;;;;;;;;5032104;28;20013;-69
2023/08/30 11:38:26;;;;;;;15.40;9.85;;;;;;;;;;5031862;28;20530;-63
2023/08/30 11:40:51;;;;;;;14.93;9.23;;;;;;;;;;5031285;28;20017;-63
2023/08/30 11:43:17;;;;;;;13.93;9.82;;;;;;;;;;5032146;28;20182;-63
2023/08/30 11:45:42;;;;;;;14.68;9.38;;;;;;;;;;5031965;28;20094;-65
2023/08/30 11:48:07;;;;;;;16.38;10.05;;;;;;;;;;5031939;28;20014;-63
2023/08/30 11:50:33;;;;;;;15.85;10.15;;;;;;;;;;5031680;28;20084;-64
2023/08/30 11:52:58;;;;;;;14.48;9.45;;;;;;;;;;5031125;28;20017;-64
2023/08/30 11:55:24;;;;;;;14.57;9.68;;;;;;;;;;5031797;28;20017;-63
2023/08/30 11:57:50;;;;;;;17.05;10.55;;;;;;;;;;5031743;28;20009;-62
2023/08/30 12:00:18;;;;;;;14.38;10.15;;;;;;;;;;5031630;28;20025;-63
2023/08/30 12:02:44;;;;;;;16.33;10.38;;;;;;;;;;5031457;28;20029;-63
2023/08/30 12:05:12;;;;;;;14.73;9.77;;;;;;;;;;5031289;28;20113;-62
2023/08/30 12:07:39;;;;;;;15.77;9.73;;;;;;;;;;5031552;28;20017;-63
2023/08/30 12:10:13;;;;;;;14.85;10.23;;;;;;;;;;5031717;28;20519;-63
2023/08/30 12:12:43;;;;;;;19.50;11.50;;;;;;;;;;5031380;28;20047;-63
2023/08/30 12:15:10;;;;;;;18.58;12.10;;;;;;;;;;5031448;28;20378;-63
2023/08/30 12:17:35;;;;;;;17.33;11.70;;;;;;;;;;5031274;28;20021;-64
2023/08/30 12:20:03;;;;;;;19.08;11.98;;;;;;;;;;5031469;28;20023;-63
2023/08/30 12:22:38;;;;;;;19.45;11.80;;;;;;;;;;5031350;28;20026;-63
2023/08/30 12:25:03;;;;;;;17.38;11.13;;;;;;;;;;5031366;28;20049;-64
2023/08/30 12:27:29;;;;;;;17.55;12.40;;;;;;;;;;5031561;28;20076;-64
2023/08/30 12:29:54;;;;;;;16.48;11.70;;;;;;;;;;5031344;28;20028;-63
2023/08/30 12:32:19;;;;;;;21.15;12.43;;;;;;;;;;5034737;28;20017;-63
2023/08/30 12:34:45;;;;;;;18.63;12.60;;;;;;;;;;5035022;28;20021;-65
2023/08/30 12:37:10;;;;;;;23.52;12.07;;;;;;;;;;5035218;28;20017;-65
2023/08/30 12:39:35;;;;;;;23.13;12.63;;;;;;;;;;5035292;28;20071;-65
2023/08/30 12:42:00;;;;;;;23.20;13.88;;;;;;;;;;5034857;28;20025;-64
2023/08/30 12:44:26;;;;;;;19.35;12.35;;;;;;;;;;5034287;28;20112;-66
2023/08/30 12:46:51;;;;;;;16.67;12.70;;;;;;;;;;5034840;28;20029;-63
2023/08/30 12:49:16;;;;;;;21.67;13.38;;;;;;;;;;5034802;28;20105;-64
2023/08/30 12:51:41;;;;;;;19.63;13.38;;;;;;;;;;5034602;28;20034;-64
2023/08/30 12:54:07;;;;;;;21.00;13.43;;;;;;;;;;5034405;28;20037;-65
2023/08/30 12:56:33;;;;;;;20.10;13.68;;;;;;;;;;5034070;28;20017;-64
2023/08/30 12:58:58;;;;;;;22.70;13.82;;;;;;;;;;5034520;28;20028;-63
2023/08/30 13:01:24;;;;;;;22.10;14.77;;;;;;;;;;5034466;28;20104;-64
2023/08/30 13:03:49;;;;;;;20.55;14.23;;;;;;;;;;5034203;28;20053;-63
2023/08/30 13:06:14;;;;;;;25.08;15.38;;;;;;;;;;5034193;28;20025;-65
2023/08/30 13:08:40;;;;;;;23.48;15.02;;;;;;;;;;5034239;28;20032;-65
2023/08/30 13:11:05;;;;;;;23.55;15.55;;;;;;;;;;5034363;28;20037;-66
2023/08/30 13:13:30;;;;;;;23.45;15.57;;;;;;;;;;5034414;28;20018;-65
2023/08/30 13:15:55;;;;;;;23.35;16.23;;;;;;;;;;5034276;28;20032;-66
2023/08/30 13:18:21;;;;;;;28.55;16.90;;;;;;;;;;5034561;28;20018;-65
2023/08/30 13:20:46;;;;;;;23.20;16.83;;;;;;;;;;5034430;28;20079;-65
2023/08/30 13:23:12;;;;;;;25.67;17.13;;;;;;;;;;5034140;28;20507;-66
2023/08/30 13:25:40;;;;;;;28.23;17.60;;;;;;;;;;5034256;28;20025;-66
2023/08/30 13:28:06;;;;;;;25.23;15.50;;;;;;;;;;5034409;28;20017;-65
2023/08/30 13:30:31;;;;;;;30.02;18.40;;;;;;;;;;5034010;28;20362;-65
2023/08/30 13:32:56;;;;;;;28.27;17.40;;;;;;;;;;5033772;28;20087;-70
2023/08/30 13:35:21;;;;;;;29.95;19.42;;;;;;;;;;5034113;28;20031;-66
2023/08/30 13:37:47;;;;;;;31.48;21.10;;;;;;;;;;5033991;28;20067;-65
2023/08/30 13:40:12;;;;;;;38.00;21.27;;;;;;;;;;5034177;28;20059;-66
2023/08/30 13:42:37;;;;;;;29.15;20.52;;;;;;;;;;5033202;28;20049;-66
2023/08/30 13:45:03;;;;;;;31.55;20.65;;;;;;;;;;5033759;28;20022;-67
2023/08/30 13:47:28;;;;;;;30.00;19.67;;;;;;;;;;5033873;28;20013;-66
2023/08/30 13:49:53;;;;;;;27.90;19.95;;;;;;;;;;5033320;28;20032;-65
2023/08/30 13:52:18;;;;;;;29.30;19.52;;;;;;;;;;5033414;28;20098;-66
2023/08/30 13:54:43;;;;;;;31.35;21.20;;;;;;;;;;5033250;28;20041;-66
2023/08/30 13:57:09;;;;;;;30.30;21.33;;;;;;;;;;5033225;28;20005;-67
2023/08/30 13:59:35;;;;;;;30.08;19.88;;;;;;;;;;5033471;28;20037;-66
2023/08/30 14:02:01;;;;;;;34.40;22.45;;;;;;;;;;5033778;28;20029;-66
2023/08/30 14:04:26;;;;;;;34.42;22.73;;;;;;;;;;5033076;28;20567;-67
2023/08/30 14:06:52;;;;;;;29.60;21.60;;;;;;;;;;5033537;28;20047;-64
2023/08/30 14:09:17;;;;;;;30.80;19.98;;;;;;;;;;5033333;28;20048;-72
2023/08/30 14:11:43;;;;;;;25.52;17.35;;;;;;;;;;5033090;28;20025;-71
2023/08/30 14:14:08;;;;;;;28.73;18.85;;;;;;;;;;5033254;28;20020;-73
2023/08/30 14:16:33;;;;;;;26.52;17.48;;;;;;;;;;5033230;28;20052;-71